sensor_id;sensor_type;location;lat;lon;timestamp;pressure;altitude;pressure_sealevel;temperature;humidity
20620;BME280;10469;42.720;23.252;2023-04-25T00:00:19;94128.16;;;9.93;100.00
20620;BME280;10469;42.720;23.252;2023-04-25T00:02:45;94122.53;;;9.95;100.00
20620;BME280;10469;42.720;23.252;2023-04-25T00:05:12;94115.56;;;9.94;100.00
20620;BME280;10469;42.720;23.252;2023-04-25T00:07:37;94127.69;;;10.01;100.00
20620;BME280;10469;42.720;23.252;2023-04-25T00:10:04;94113.47;;;10.01;100.00
20620;BME280;10469;42.720;23.252;2023-04-25T00:12:30;94104.63;;;10.00;100.00
20620;BME280;10469;42.720;23.252;2023-04-25T00:14:55;94108.19;;;10.06;100.00
20620;BME280;10469;42.720;23.252;2023-04-25T00:17:25;94094.69;;;9.96;100.00
20620;BME280;10469;42.720;23.252;2023-04-25T00:19:52;94085.00;;;9.90;100.00
20620;BME280;10469;42.720;23.252;2023-04-25T00:22:17;94104.94;;;10.04;100.00
20620;BME280;10469;42.720;23.252;2023-04-25T00:24:43;94125.66;;;10.14;100.00
20620;BME280;10469;42.720;23.252;2023-04-25T00:27:08;94125.50;;;10.20;100.00
20620;BME280;10469;42.720;23.252;2023-04-25T00:29:34;94122.31;;;10.23;100.00
20620;BME280;10469;42.720;23.252;2023-04-25T00:31:59;94137.00;;;10.21;100.00
20620;BME280;10469;42.720;23.252;2023-04-25T00:34:25;94132.19;;;10.23;100.00
20620;BME280;10469;42.720;23.252;2023-04-25T00:36:51;94132.03;;;10.29;100.00
20620;BME280;10469;42.720;23.252;2023-04-25T00:39:16;94127.75;;;10.28;100.00
20620;BME280;10469;42.720;23.252;2023-04-25T00:41:43;94126.72;;;10.35;100.00
20620;BME280;10469;42.720;23.252;2023-04-25T00:44:09;94120.38;;;10.41;100.00
20620;BME280;10469;42.720;23.252;2023-04-25T00:46:36;94111.50;;;10.40;100.00
20620;BME280;10469;42.720;23.252;2023-04-25T00:49:02;94109.88;;;10.39;100.00
20620;BME280;10469;42.720;23.252;2023-04-25T00:51:28;94118.22;;;10.43;100.00
20620;BME280;10469;42.720;23.252;2023-04-25T00:53:54;94107.63;;;10.26;100.00
20620;BME280;10469;42.720;23.252;2023-04-25T00:56:20;94102.53;;;10.24;100.00
20620;BME280;10469;42.720;23.252;2023-04-25T00:58:47;94102.25;;;10.26;100.00
20620;BME280;10469;42.720;23.252;2023-04-25T01:01:13;94099.69;;;10.14;100.00
20620;BME280;10469;42.720;23.252;2023-04-25T01:03:39;94091.84;;;10.29;100.00
20620;BME280;10469;42.720;23.252;2023-04-25T01:06:11;94084.22;;;10.21;100.00
20620;BME280;10469;42.720;23.252;2023-04-25T01:08:38;94104.94;;;10.26;100.00
20620;BME280;10469;42.720;23.252;2023-04-25T01:11:05;94095.84;;;10.27;100.00
20620;BME280;10469;42.720;23.252;2023-04-25T01:13:31;94086.44;;;10.24;100.00
20620;BME280;10469;42.720;23.252;2023-04-25T01:15:58;94084.16;;;10.11;100.00
20620;BME280;10469;42.720;23.252;2023-04-25T01:18:24;94076.56;;;10.03;100.00
20620;BME280;10469;42.720;23.252;2023-04-25T01:20:51;94084.59;;;10.03;100.00
20620;BME280;10469;42.720;23.252;2023-04-25T01:23:18;94086.78;;;10.06;100.00
20620;BME280;10469;42.720;23.252;2023-04-25T01:25:43;94071.91;;;9.93;100.00
20620;BME280;10469;42.720;23.252;2023-04-25T01:28:10;94078.06;;;9.94;100.00
20620;BME280;10469;42.720;23.252;2023-04-25T01:30:36;94079.06;;;9.88;100.00
20620;BME280;10469;42.720;23.252;2023-04-25T01:33:02;94077.84;;;9.73;100.00
20620;BME280;10469;42.720;23.252;2023-04-25T01:35:29;94083.75;;;9.75;100.00
20620;BME280;10469;42.720;23.252;2023-04-25T01:37:55;94084.81;;;9.74;100.00
20620;BME280;10469;42.720;23.252;2023-04-25T01:40:21;94081.59;;;9.72;100.00
20620;BME280;10469;42.720;23.252;2023-04-25T01:42:48;94081.59;;;9.72;100.00
20620;BME280;10469;42.720;23.252;2023-04-25T01:45:13;94082.94;;;9.75;100.00
20620;BME280;10469;42.720;23.252;2023-04-25T01:47:39;94086.06;;;9.67;100.00
20620;BME280;10469;42.720;23.252;2023-04-25T01:50:06;94082.56;;;9.44;100.00
20620;BME280;10469;42.720;23.252;2023-04-25T01:52:32;94069.72;;;9.41;100.00
20620;BME280;10469;42.720;23.252;2023-04-25T01:55:01;94086.31;;;9.43;100.00
20620;BME280;10469;42.720;23.252;2023-04-25T01:57:27;94075.88;;;9.42;100.00
20620;BME280;10469;42.720;23.252;2023-04-25T02:00:03;94093.16;;;9.56;100.00
20620;BME280;10469;42.720;23.252;2023-04-25T02:02:29;94098.03;;;9.59;100.00
20620;BME280;10469;42.720;23.252;2023-04-25T02:04:55;94093.53;;;9.65;100.00
20620;BME280;10469;42.720;23.252;2023-04-25T02:07:21;94100.75;;;9.64;100.00
20620;BME280;10469;42.720;23.252;2023-04-25T02:09:47;94096.75;;;9.67;100.00
20620;BME280;10469;42.720;23.252;2023-04-25T02:12:13;94085.31;;;9.71;100.00
20620;BME280;10469;42.720;23.252;2023-04-25T02:14:38;94085.81;;;9.68;100.00
20620;BME280;10469;42.720;23.252;2023-04-25T02:17:04;94082.88;;;9.70;100.00
20620;BME280;10469;42.720;23.252;2023-04-25T02:19:30;94075.13;;;9.68;100.00
20620;BME280;10469;42.720;23.252;2023-04-25T02:21:56;94062.78;;;9.67;100.00
20620;BME280;10469;42.720;23.252;2023-04-25T02:24:22;94070.50;;;9.64;100.00
20620;BME280;10469;42.720;23.252;2023-04-25T02:26:48;94074.75;;;9.60;100.00
20620;BME280;10469;42.720;23.252;2023-04-25T02:29:15;94063.47;;;9.58;100.00
20620;BME280;10469;42.720;23.252;2023-04-25T02:31:40;94053.28;;;9.54;100.00
20620;BME280;10469;42.720;23.252;2023-04-25T02:34:06;94051.84;;;9.47;100.00
20620;BME280;10469;42.720;23.252;2023-04-25T02:36:31;94049.72;;;9.49;100.00
20620;BME280;10469;42.720;23.252;2023-04-25T02:39:00;94055.97;;;9.54;100.00
20620;BME280;10469;42.720;23.252;2023-04-25T02:41:26;94029.09;;;9.49;100.00
20620;BME280;10469;42.720;23.252;2023-04-25T02:43:51;94023.59;;;9.34;100.00
20620;BME280;10469;42.720;23.252;2023-04-25T02:46:17;94050.25;;;9.46;100.00
20620;BME280;10469;42.720;23.252;2023-04-25T02:48:42;94030.63;;;9.40;100.00
20620;BME280;10469;42.720;23.252;2023-04-25T02:51:08;94058.31;;;9.51;100.00
20620;BME280;10469;42.720;23.252;2023-04-25T02:53:34;94040.13;;;9.53;100.00
20620;BME280;10469;42.720;23.252;2023-04-25T02:55:59;94027.63;;;9.59;100.00
20620;BME280;10469;42.720;23.252;2023-04-25T02:58:25;94039.81;;;9.49;100.00
20620;BME280;10469;42.720;23.252;2023-04-25T03:00:50;94033.34;;;9.45;100.00
20620;BME280;10469;42.720;23.252;2023-04-25T03:03:16;94027.06;;;9.35;100.00
20620;BME280;10469;42.720;23.252;2023-04-25T03:05:43;94031.94;;;9.38;100.00
20620;BME280;10469;42.720;23.252;2023-04-25T03:08:09;94034.19;;;9.46;100.00
20620;BME280;10469;42.720;23.252;2023-04-25T03:10:34;94020.72;;;9.41;100.00
20620;BME280;10469;42.720;23.252;2023-04-25T03:13:00;94035.03;;;9.51;100.00
20620;BME280;10469;42.720;23.252;2023-04-25T03:15:25;94031.13;;;9.59;100.00
20620;BME280;10469;42.720;23.252;2023-04-25T03:17:51;94034.47;;;9.49;100.00
20620;BME280;10469;42.720;23.252;2023-04-25T03:20:17;94040.44;;;9.57;100.00
20620;BME280;10469;42.720;23.252;2023-04-25T03:22:42;94037.50;;;9.58;100.00
20620;BME280;10469;42.720;23.252;2023-04-25T03:25:08;94031.59;;;9.56;100.00
20620;BME280;10469;42.720;23.252;2023-04-25T03:27:33;94027.75;;;9.47;100.00
20620;BME280;10469;42.720;23.252;2023-04-25T03:29:59;94033.56;;;9.39;100.00
20620;BME280;10469;42.720;23.252;2023-04-25T03:32:24;94020.34;;;9.32;100.00
20620;BME280;10469;42.720;23.252;2023-04-25T03:34:50;94041.56;;;9.39;100.00
20620;BME280;10469;42.720;23.252;2023-04-25T03:37:16;94044.78;;;9.41;100.00
20620;BME280;10469;42.720;23.252;2023-04-25T03:39:41;94036.53;;;9.42;100.00
20620;BME280;10469;42.720;23.252;2023-04-25T03:42:07;94032.06;;;9.48;100.00
20620;BME280;10469;42.720;23.252;2023-04-25T03:44:32;94013.25;;;9.43;100.00
20620;BME280;10469;42.720;23.252;2023-04-25T03:46:58;94017.09;;;9.52;100.00
20620;BME280;10469;42.720;23.252;2023-04-25T03:49:24;94028.25;;;9.44;100.00
20620;BME280;10469;42.720;23.252;2023-04-25T03:51:50;94028.44;;;9.59;100.00
20620;BME280;10469;42.720;23.252;2023-04-25T03:54:15;94030.09;;;9.65;100.00
20620;BME280;10469;42.720;23.252;2023-04-25T03:56:41;94031.44;;;9.90;100.00
20620;BME280;10469;42.720;23.252;2023-04-25T03:59:06;94041.09;;;9.91;100.00
20620;BME280;10469;42.720;23.252;2023-04-25T04:01:33;94045.13;;;9.93;100.00
20620;BME280;10469;42.720;23.252;2023-04-25T04:03:58;94038.66;;;10.16;100.00
20620;BME280;10469;42.720;23.252;2023-04-25T04:06:23;94048.41;;;10.27;100.00
20620;BME280;10469;42.720;23.252;2023-04-25T04:08:49;94044.22;;;10.37;100.00
20620;BME280;10469;42.720;23.252;2023-04-25T04:11:15;94057.28;;;10.28;100.00
20620;BME280;10469;42.720;23.252;2023-04-25T04:13:40;94036.94;;;10.32;100.00
20620;BME280;10469;42.720;23.252;2023-04-25T04:16:06;94048.50;;;10.38;100.00
20620;BME280;10469;42.720;23.252;2023-04-25T04:18:31;94040.03;;;10.51;100.00
20620;BME280;10469;42.720;23.252;2023-04-25T04:20:58;94025.16;;;10.70;100.00
20620;BME280;10469;42.720;23.252;2023-04-25T04:23:24;94021.75;;;10.43;100.00
20620;BME280;10469;42.720;23.252;2023-04-25T04:25:52;94036.72;;;10.71;100.00
20620;BME280;10469;42.720;23.252;2023-04-25T04:28:18;94035.78;;;10.55;100.00
20620;BME280;10469;42.720;23.252;2023-04-25T04:30:43;94041.38;;;10.91;100.00
20620;BME280;10469;42.720;23.252;2023-04-25T04:33:12;94035.41;;;10.78;100.00
20620;BME280;10469;42.720;23.252;2023-04-25T04:35:38;94033.72;;;10.67;100.00
20620;BME280;10469;42.720;23.252;2023-04-25T04:38:03;94040.66;;;10.58;100.00
20620;BME280;10469;42.720;23.252;2023-04-25T04:40:29;94047.31;;;10.55;100.00
20620;BME280;10469;42.720;23.252;2023-04-25T04:42:56;94040.25;;;10.44;100.00
20620;BME280;10469;42.720;23.252;2023-04-25T04:45:23;94044.56;;;10.45;100.00
20620;BME280;10469;42.720;23.252;2023-04-25T04:47:49;94046.28;;;10.62;100.00
20620;BME280;10469;42.720;23.252;2023-04-25T04:50:14;94058.84;;;10.56;100.00
20620;BME280;10469;42.720;23.252;2023-04-25T04:52:41;94051.94;;;10.65;100.00
20620;BME280;10469;42.720;23.252;2023-04-25T04:55:07;94048.50;;;10.38;100.00
20620;BME280;10469;42.720;23.252;2023-04-25T04:57:33;94048.88;;;10.51;100.00
20620;BME280;10469;42.720;23.252;2023-04-25T05:00:00;94053.94;;;10.48;100.00
20620;BME280;10469;42.720;23.252;2023-04-25T05:02:26;94039.31;;;10.61;100.00
20620;BME280;10469;42.720;23.252;2023-04-25T05:04:52;94058.34;;;10.59;100.00
20620;BME280;10469;42.720;23.252;2023-04-25T05:07:18;94064.13;;;10.46;100.00
20620;BME280;10469;42.720;23.252;2023-04-25T05:09:44;94065.22;;;10.50;100.00
20620;BME280;10469;42.720;23.252;2023-04-25T05:12:09;94054.25;;;10.51;100.00
20620;BME280;10469;42.720;23.252;2023-04-25T05:14:35;94086.31;;;10.73;100.00
20620;BME280;10469;42.720;23.252;2023-04-25T05:17:00;94065.56;;;10.59;100.00
20620;BME280;10469;42.720;23.252;2023-04-25T05:19:26;94064.50;;;10.60;100.00
20620;BME280;10469;42.720;23.252;2023-04-25T05:21:52;94071.84;;;10.74;100.00
20620;BME280;10469;42.720;23.252;2023-04-25T05:24:18;94068.13;;;10.75;100.00
20620;BME280;10469;42.720;23.252;2023-04-25T05:26:43;94059.50;;;10.73;100.00
20620;BME280;10469;42.720;23.252;2023-04-25T05:29:09;94064.28;;;11.03;100.00
20620;BME280;10469;42.720;23.252;2023-04-25T05:31:36;94054.34;;;11.04;100.00
20620;BME280;10469;42.720;23.252;2023-04-25T05:34:02;94057.16;;;11.24;100.00
20620;BME280;10469;42.720;23.252;2023-04-25T05:36:27;94055.28;;;11.25;100.00
20620;BME280;10469;42.720;23.252;2023-04-25T05:38:53;94056.47;;;10.97;100.00
20620;BME280;10469;42.720;23.252;2023-04-25T05:41:19;94045.22;;;11.05;100.00
20620;BME280;10469;42.720;23.252;2023-04-25T05:43:45;94039.22;;;11.35;100.00
20620;BME280;10469;42.720;23.252;2023-04-25T05:46:12;94051.31;;;11.43;100.00
20620;BME280;10469;42.720;23.252;2023-04-25T05:48:38;94043.84;;;11.50;100.00
20620;BME280;10469;42.720;23.252;2023-04-25T05:51:04;94049.72;;;11.42;100.00
20620;BME280;10469;42.720;23.252;2023-04-25T05:53:30;94035.69;;;11.29;100.00
20620;BME280;10469;42.720;23.252;2023-04-25T05:55:55;94043.53;;;11.41;100.00
20620;BME280;10469;42.720;23.252;2023-04-25T05:58:20;94052.00;;;11.80;100.00
20620;BME280;10469;42.720;23.252;2023-04-25T06:00:46;94054.25;;;11.99;100.00
20620;BME280;10469;42.720;23.252;2023-04-25T06:03:12;94043.00;;;12.22;100.00
20620;BME280;10469;42.720;23.252;2023-04-25T06:05:41;94047.03;;;12.20;100.00
20620;BME280;10469;42.720;23.252;2023-04-25T06:08:07;94044.06;;;12.21;100.00
20620;BME280;10469;42.720;23.252;2023-04-25T06:10:33;94038.44;;;12.23;100.00
20620;BME280;10469;42.720;23.252;2023-04-25T06:12:59;94027.97;;;12.32;100.00
20620;BME280;10469;42.720;23.252;2023-04-25T06:15:24;94034.69;;;12.65;100.00
20620;BME280;10469;42.720;23.252;2023-04-25T06:17:50;94042.97;;;11.92;100.00
20620;BME280;10469;42.720;23.252;2023-04-25T06:20:15;94045.94;;;12.00;100.00
20620;BME280;10469;42.720;23.252;2023-04-25T06:22:41;94044.63;;;12.18;100.00
20620;BME280;10469;42.720;23.252;2023-04-25T06:25:07;94051.34;;;12.51;100.00
20620;BME280;10469;42.720;23.252;2023-04-25T06:27:33;94042.16;;;13.99;100.00
20620;BME280;10469;42.720;23.252;2023-04-25T06:29:59;94043.16;;;14.13;100.00
20620;BME280;10469;42.720;23.252;2023-04-25T06:32:24;94030.44;;;14.92;100.00
20620;BME280;10469;42.720;23.252;2023-04-25T06:34:51;94029.75;;;14.42;100.00
20620;BME280;10469;42.720;23.252;2023-04-25T06:37:16;94033.56;;;14.36;100.00
20620;BME280;10469;42.720;23.252;2023-04-25T06:39:42;94045.63;;;14.49;100.00
20620;BME280;10469;42.720;23.252;2023-04-25T06:42:07;94029.44;;;13.50;100.00
20620;BME280;10469;42.720;23.252;2023-04-25T06:44:33;94013.31;;;13.40;100.00
20620;BME280;10469;42.720;23.252;2023-04-25T06:46:59;94039.69;;;14.02;100.00
20620;BME280;10469;42.720;23.252;2023-04-25T06:49:24;94041.28;;;14.09;100.00
20620;BME280;10469;42.720;23.252;2023-04-25T06:51:50;94038.81;;;14.17;100.00
20620;BME280;10469;42.720;23.252;2023-04-25T06:54:15;94032.34;;;14.13;100.00
20620;BME280;10469;42.720;23.252;2023-04-25T06:56:41;94035.34;;;14.06;100.00
20620;BME280;10469;42.720;23.252;2023-04-25T06:59:06;94044.13;;;13.73;100.00
20620;BME280;10469;42.720;23.252;2023-04-25T07:01:32;94031.53;;;13.63;100.00
20620;BME280;10469;42.720;23.252;2023-04-25T07:03:57;94049.38;;;13.49;100.00
20620;BME280;10469;42.720;23.252;2023-04-25T07:06:23;94038.78;;;13.68;100.00
20620;BME280;10469;42.720;23.252;2023-04-25T07:08:49;94046.56;;;13.74;100.00
20620;BME280;10469;42.720;23.252;2023-04-25T07:11:14;94061.13;;;13.73;100.00
20620;BME280;10469;42.720;23.252;2023-04-25T07:13:40;94050.34;;;13.73;100.00
20620;BME280;10469;42.720;23.252;2023-04-25T07:16:05;94049.09;;;13.45;100.00
20620;BME280;10469;42.720;23.252;2023-04-25T07:18:31;94044.44;;;13.66;100.00
20620;BME280;10469;42.720;23.252;2023-04-25T07:20:56;94039.94;;;13.46;100.00
20620;BME280;10469;42.720;23.252;2023-04-25T07:23:22;94023.97;;;13.70;100.00
20620;BME280;10469;42.720;23.252;2023-04-25T07:25:48;94047.13;;;14.26;100.00
20620;BME280;10469;42.720;23.252;2023-04-25T07:28:21;94039.47;;;14.38;100.00
20620;BME280;10469;42.720;23.252;2023-04-25T07:30:46;94037.19;;;14.61;100.00
20620;BME280;10469;42.720;23.252;2023-04-25T07:33:11;94039.75;;;14.76;100.00
20620;BME280;10469;42.720;23.252;2023-04-25T07:35:37;94014.66;;;15.04;100.00
20620;BME280;10469;42.720;23.252;2023-04-25T07:38:02;94028.47;;;15.27;100.00
20620;BME280;10469;42.720;23.252;2023-04-25T07:40:28;93998.56;;;14.65;100.00
20620;BME280;10469;42.720;23.252;2023-04-25T07:42:54;94017.97;;;15.73;100.00
20620;BME280;10469;42.720;23.252;2023-04-25T07:45:19;94018.66;;;16.60;100.00
20620;BME280;10469;42.720;23.252;2023-04-25T07:47:45;94015.06;;;17.29;100.00
20620;BME280;10469;42.720;23.252;2023-04-25T07:50:11;94010.53;;;17.11;100.00
20620;BME280;10469;42.720;23.252;2023-04-25T07:52:36;94005.72;;;16.75;100.00
20620;BME280;10469;42.720;23.252;2023-04-25T07:55:05;94015.38;;;16.63;100.00
20620;BME280;10469;42.720;23.252;2023-04-25T07:57:36;94014.31;;;16.07;100.00
20620;BME280;10469;42.720;23.252;2023-04-25T08:00:02;94003.31;;;15.55;100.00
20620;BME280;10469;42.720;23.252;2023-04-25T08:02:28;94005.25;;;15.50;100.00
20620;BME280;10469;42.720;23.252;2023-04-25T08:04:54;93995.28;;;15.50;100.00
20620;BME280;10469;42.720;23.252;2023-04-25T08:07:20;93991.56;;;15.41;100.00
20620;BME280;10469;42.720;23.252;2023-04-25T08:09:45;93997.69;;;15.95;100.00
20620;BME280;10469;42.720;23.252;2023-04-25T08:12:11;93998.19;;;16.72;100.00
20620;BME280;10469;42.720;23.252;2023-04-25T08:14:37;93997.75;;;16.27;100.00
20620;BME280;10469;42.720;23.252;2023-04-25T08:17:04;93995.47;;;16.53;100.00
20620;BME280;10469;42.720;23.252;2023-04-25T08:19:30;94003.91;;;15.76;100.00
20620;BME280;10469;42.720;23.252;2023-04-25T08:21:56;93999.91;;;15.45;100.00
20620;BME280;10469;42.720;23.252;2023-04-25T08:24:22;94019.75;;;15.11;100.00
20620;BME280;10469;42.720;23.252;2023-04-25T08:26:48;94021.56;;;14.13;100.00
20620;BME280;10469;42.720;23.252;2023-04-25T08:29:14;94026.31;;;13.87;100.00
20620;BME280;10469;42.720;23.252;2023-04-25T08:31:39;94006.91;;;13.15;100.00
20620;BME280;10469;42.720;23.252;2023-04-25T08:34:05;94033.31;;;12.77;100.00
20620;BME280;10469;42.720;23.252;2023-04-25T08:36:31;94037.06;;;12.05;100.00
20620;BME280;10469;42.720;23.252;2023-04-25T08:38:57;94041.66;;;12.20;100.00
20620;BME280;10469;42.720;23.252;2023-04-25T08:41:23;94027.69;;;12.18;100.00
20620;BME280;10469;42.720;23.252;2023-04-25T08:43:49;94023.59;;;14.31;100.00
20620;BME280;10469;42.720;23.252;2023-04-25T08:46:18;94027.19;;;14.61;100.00
20620;BME280;10469;42.720;23.252;2023-04-25T08:48:45;94020.91;;;14.71;100.00
20620;BME280;10469;42.720;23.252;2023-04-25T08:51:18;94017.34;;;15.82;100.00
20620;BME280;10469;42.720;23.252;2023-04-25T08:53:49;93989.56;;;16.51;100.00
20620;BME280;10469;42.720;23.252;2023-04-25T08:56:16;93992.69;;;17.65;100.00
20620;BME280;10469;42.720;23.252;2023-04-25T08:58:50;93971.88;;;19.05;100.00
20620;BME280;10469;42.720;23.252;2023-04-25T09:01:16;93973.63;;;19.41;100.00
20620;BME280;10469;42.720;23.252;2023-04-25T09:03:44;93972.78;;;17.70;100.00
20620;BME280;10469;42.720;23.252;2023-04-25T09:06:13;93962.66;;;16.93;100.00
20620;BME280;10469;42.720;23.252;2023-04-25T09:08:39;93975.91;;;17.91;100.00
20620;BME280;10469;42.720;23.252;2023-04-25T09:11:06;93958.88;;;17.63;100.00
20620;BME280;10469;42.720;23.252;2023-04-25T09:13:32;93968.41;;;17.33;100.00
20620;BME280;10469;42.720;23.252;2023-04-25T09:15:57;93951.72;;;17.25;100.00
20620;BME280;10469;42.720;23.252;2023-04-25T09:18:31;93957.38;;;18.43;100.00
20620;BME280;10469;42.720;23.252;2023-04-25T09:21:05;93944.84;;;19.00;100.00
20620;BME280;10469;42.720;23.252;2023-04-25T09:23:39;93937.69;;;20.45;100.00
20620;BME280;10469;42.720;23.252;2023-04-25T09:26:07;93924.81;;;22.12;100.00
20620;BME280;10469;42.720;23.252;2023-04-25T09:28:33;93935.00;;;21.94;100.00
20620;BME280;10469;42.720;23.252;2023-04-25T09:31:00;93931.44;;;22.65;100.00
20620;BME280;10469;42.720;23.252;2023-04-25T09:33:30;93940.22;;;20.85;100.00
20620;BME280;10469;42.720;23.252;2023-04-25T09:36:09;93957.50;;;20.02;100.00
20620;BME280;10469;42.720;23.252;2023-04-25T09:38:43;93964.16;;;19.61;100.00
20620;BME280;10469;42.720;23.252;2023-04-25T09:41:10;93969.31;;;18.78;100.00
20620;BME280;10469;42.720;23.252;2023-04-25T09:43:36;93950.34;;;18.87;100.00
20620;BME280;10469;42.720;23.252;2023-04-25T09:46:02;93922.41;;;21.04;100.00
20620;BME280;10469;42.720;23.252;2023-04-25T09:48:29;93938.47;;;22.03;100.00
20620;BME280;10469;42.720;23.252;2023-04-25T09:51:11;93950.13;;;20.98;100.00
20620;BME280;10469;42.720;23.252;2023-04-25T09:53:40;93954.34;;;22.94;100.00
20620;BME280;10469;42.720;23.252;2023-04-25T09:56:08;93937.69;;;24.42;93.13
20620;BME280;10469;42.720;23.252;2023-04-25T09:58:36;93940.69;;;25.21;83.98
20620;BME280;10469;42.720;23.252;2023-04-25T10:01:04;93939.88;;;25.81;78.76
20620;BME280;10469;42.720;23.252;2023-04-25T10:03:34;93934.97;;;26.06;75.85
20620;BME280;10469;42.720;23.252;2023-04-25T10:06:02;93940.25;;;27.92;67.28
20620;BME280;10469;42.720;23.252;2023-04-25T10:08:36;93930.56;;;24.66;67.60
20620;BME280;10469;42.720;23.252;2023-04-25T10:11:06;93940.50;;;22.57;87.57
20620;BME280;10469;42.720;23.252;2023-04-25T10:13:33;93961.19;;;19.97;100.00
20620;BME280;10469;42.720;23.252;2023-04-25T10:16:00;93970.41;;;18.54;100.00
20620;BME280;10469;42.720;23.252;2023-04-25T10:18:26;93967.75;;;19.17;100.00
20620;BME280;10469;42.720;23.252;2023-04-25T10:20:56;93959.47;;;18.91;100.00
20620;BME280;10469;42.720;23.252;2023-04-25T10:23:23;93956.50;;;18.70;100.00
20620;BME280;10469;42.720;23.252;2023-04-25T10:25:50;93971.75;;;18.07;100.00
20620;BME280;10469;42.720;23.252;2023-04-25T10:28:17;93993.44;;;15.70;100.00
20620;BME280;10469;42.720;23.252;2023-04-25T10:31:02;93978.53;;;15.00;100.00
20620;BME280;10469;42.720;23.252;2023-04-25T10:33:39;93972.06;;;14.38;100.00
20620;BME280;10469;42.720;23.252;2023-04-25T10:36:13;93974.66;;;14.14;100.00
20620;BME280;10469;42.720;23.252;2023-04-25T10:38:42;93956.63;;;14.44;100.00
20620;BME280;10469;42.720;23.252;2023-04-25T10:41:09;93959.13;;;15.22;100.00
20620;BME280;10469;42.720;23.252;2023-04-25T10:43:41;93958.91;;;16.56;100.00
20620;BME280;10469;42.720;23.252;2023-04-25T10:46:27;93952.00;;;18.51;100.00
20620;BME280;10469;42.720;23.252;2023-04-25T10:48:58;93946.81;;;17.55;100.00
20620;BME280;10469;42.720;23.252;2023-04-25T10:51:26;93946.22;;;18.67;100.00
20620;BME280;10469;42.720;23.252;2023-04-25T10:56:22;93944.06;;;19.00;100.00
20620;BME280;10469;42.720;23.252;2023-04-25T10:58:48;93948.41;;;18.78;100.00
20620;BME280;10469;42.720;23.252;2023-04-25T11:01:19;93932.25;;;17.78;100.00
20620;BME280;10469;42.720;23.252;2023-04-25T11:03:45;93938.50;;;18.38;100.00
20620;BME280;10469;42.720;23.252;2023-04-25T11:06:27;93936.56;;;20.46;99.35
20620;BME280;10469;42.720;23.252;2023-04-25T11:08:54;93920.88;;;20.43;89.25
20620;BME280;10469;42.720;23.252;2023-04-25T11:11:20;93934.72;;;19.23;92.16
20620;BME280;10469;42.720;23.252;2023-04-25T11:13:49;93936.47;;;17.85;100.00
20620;BME280;10469;42.720;23.252;2023-04-25T11:16:16;93931.84;;;17.44;100.00
20620;BME280;10469;42.720;23.252;2023-04-25T11:18:43;93935.78;;;17.38;100.00
20620;BME280;10469;42.720;23.252;2023-04-25T11:21:09;93927.56;;;17.29;100.00
20620;BME280;10469;42.720;23.252;2023-04-25T11:23:35;93930.75;;;16.71;100.00
20620;BME280;10469;42.720;23.252;2023-04-25T11:26:02;93935.75;;;16.31;100.00
20620;BME280;10469;42.720;23.252;2023-04-25T11:28:28;93927.97;;;16.29;100.00
20620;BME280;10469;42.720;23.252;2023-04-25T11:30:53;93921.34;;;16.68;100.00
20620;BME280;10469;42.720;23.252;2023-04-25T11:33:23;93934.97;;;16.63;100.00
20620;BME280;10469;42.720;23.252;2023-04-25T11:35:49;93933.19;;;16.40;100.00
20620;BME280;10469;42.720;23.252;2023-04-25T11:38:15;93933.66;;;16.28;100.00
20620;BME280;10469;42.720;23.252;2023-04-25T11:40:40;93913.72;;;16.24;100.00
20620;BME280;10469;42.720;23.252;2023-04-25T11:43:06;93916.66;;;16.09;100.00
20620;BME280;10469;42.720;23.252;2023-04-25T11:45:32;93917.81;;;17.42;100.00
20620;BME280;10469;42.720;23.252;2023-04-25T11:47:58;93913.06;;;18.11;100.00
20620;BME280;10469;42.720;23.252;2023-04-25T11:50:23;93916.06;;;18.23;100.00
20620;BME280;10469;42.720;23.252;2023-04-25T11:52:49;93917.63;;;18.02;100.00
20620;BME280;10469;42.720;23.252;2023-04-25T11:55:17;93900.94;;;17.31;100.00
20620;BME280;10469;42.720;23.252;2023-04-25T11:57:44;93900.13;;;18.30;99.20
20620;BME280;10469;42.720;23.252;2023-04-25T12:02:55;93904.78;;;17.30;100.00
20620;BME280;10469;42.720;23.252;2023-04-25T12:05:25;93897.13;;;17.18;100.00
20620;BME280;10469;42.720;23.252;2023-04-25T12:07:51;93905.78;;;17.20;100.00
20620;BME280;10469;42.720;23.252;2023-04-25T12:10:17;93893.88;;;17.71;100.00
20620;BME280;10469;42.720;23.252;2023-04-25T12:12:47;93891.47;;;17.70;95.20
20620;BME280;10469;42.720;23.252;2023-04-25T12:15:14;93902.63;;;16.39;100.00
20620;BME280;10469;42.720;23.252;2023-04-25T12:17:48;93910.84;;;16.34;99.55
20620;BME280;10469;42.720;23.252;2023-04-25T12:20:16;93968.31;;;15.69;100.00
20620;BME280;10469;42.720;23.252;2023-04-25T12:22:46;93980.72;;;14.35;100.00
20620;BME280;10469;42.720;23.252;2023-04-25T12:25:40;93978.38;;;13.14;100.00
20620;BME280;10469;42.720;23.252;2023-04-25T12:28:19;93970.16;;;12.70;100.00
20620;BME280;10469;42.720;23.252;2023-04-25T12:30:57;93966.66;;;12.54;100.00
20620;BME280;10469;42.720;23.252;2023-04-25T12:33:24;93969.88;;;12.51;100.00
20620;BME280;10469;42.720;23.252;2023-04-25T12:35:49;93962.34;;;12.43;100.00
20620;BME280;10469;42.720;23.252;2023-04-25T12:38:27;93966.09;;;12.67;100.00
20620;BME280;10469;42.720;23.252;2023-04-25T12:40:53;93973.31;;;12.97;100.00
20620;BME280;10469;42.720;23.252;2023-04-25T12:43:20;93969.28;;;12.90;100.00
20620;BME280;10469;42.720;23.252;2023-04-25T12:45:50;93976.50;;;13.10;100.00